createdAt,value
2018-07-25T00:00:32.272Z,10.07
2018-07-25T00:03:03.345Z,9.70
2018-07-25T00:05:33.981Z,10.37
2018-07-25T00:08:05.095Z,9.97
2018-07-25T00:10:40.682Z,9.47
2018-07-25T00:13:11.512Z,10.20
2018-07-25T00:15:42.147Z,9.87
2018-07-25T00:18:13.046Z,12.50
2018-07-25T00:20:43.716Z,10.83
2018-07-25T00:23:14.520Z,10.73
2018-07-25T00:25:45.126Z,9.77
2018-07-25T00:28:15.810Z,11.07
2018-07-25T00:30:46.569Z,10.60
2018-07-25T00:33:17.337Z,11.93
2018-07-25T00:35:48.027Z,11.70
2018-07-25T00:38:18.614Z,11.23
2018-07-25T00:40:49.246Z,9.07
2018-07-25T00:43:19.931Z,10.10
2018-07-25T00:45:50.311Z,10.20
2018-07-25T00:48:20.889Z,9.90
2018-07-25T00:50:51.486Z,9.90
2018-07-25T00:53:22.000Z,11.33
2018-07-25T00:55:52.654Z,9.40
2018-07-25T00:58:23.376Z,8.80
2018-07-25T01:00:54.017Z,8.63
2018-07-25T01:03:24.736Z,8.90
2018-07-25T01:05:55.419Z,9.80
2018-07-25T01:08:26.237Z,8.57
2018-07-25T01:10:56.952Z,9.13
2018-07-25T01:13:27.817Z,8.87
2018-07-25T01:15:58.620Z,8.90
2018-07-25T01:18:29.340Z,8.70
2018-07-25T01:20:59.925Z,9.07
2018-07-25T01:23:30.852Z,9.80
2018-07-25T01:26:01.709Z,12.07
2018-07-25T01:28:32.749Z,10.50
2018-07-25T01:31:03.372Z,9.63
2018-07-25T01:33:34.101Z,11.07
2018-07-25T01:36:04.705Z,10.43
2018-07-25T01:38:35.403Z,9.73
2018-07-25T01:41:06.089Z,10.47
2018-07-25T01:43:36.811Z,9.37
2018-07-25T01:46:07.660Z,10.07
2018-07-25T01:48:38.433Z,9.80
2018-07-25T01:51:09.045Z,10.60
2018-07-25T01:53:39.728Z,10.00
2018-07-25T01:56:10.401Z,10.13
2018-07-25T01:58:41.509Z,8.73
2018-07-25T02:01:12.124Z,8.30
2018-07-25T02:03:42.781Z,8.83
2018-07-25T02:06:13.512Z,9.73
2018-07-25T02:08:44.116Z,13.30
2018-07-25T02:11:14.811Z,10.17
2018-07-25T02:13:45.569Z,12.10
2018-07-25T02:16:16.385Z,10.47
2018-07-25T02:18:47.149Z,12.63
2018-07-25T02:21:17.876Z,10.77
2018-07-25T02:23:49.048Z,12.03
2018-07-25T02:26:19.784Z,10.90
2018-07-25T02:28:50.601Z,10.87
2018-07-25T02:31:21.257Z,11.70
2018-07-25T02:33:57.013Z,12.23
2018-07-25T02:36:27.553Z,12.87
2018-07-25T02:38:58.312Z,11.60
2018-07-25T02:41:29.041Z,11.47
2018-07-25T02:43:59.129Z,10.97
2018-07-25T02:46:29.680Z,11.93
2018-07-25T02:49:00.643Z,12.13
2018-07-25T02:51:32.628Z,11.07
2018-07-25T02:54:03.601Z,12.37
2018-07-25T02:56:36.329Z,11.70
2018-07-25T02:59:06.961Z,11.77
2018-07-25T03:01:37.569Z,12.40
2018-07-25T03:04:08.494Z,11.43
2018-07-25T03:06:39.054Z,12.07
2018-07-25T03:09:10.670Z,12.13
2018-07-25T03:11:41.412Z,11.93
2018-07-25T03:14:12.178Z,15.03
2018-07-25T03:16:42.933Z,12.43
2018-07-25T03:19:14.064Z,14.80
2018-07-25T03:21:44.628Z,12.87
2018-07-25T03:24:15.473Z,14.00
2018-07-25T03:26:46.046Z,15.40
2018-07-25T03:29:16.833Z,15.33
2018-07-25T03:31:47.472Z,21.87
2018-07-25T03:34:18.193Z,27.47
2018-07-25T03:36:48.676Z,13.57
2018-07-25T03:39:19.722Z,20.00
2018-07-25T03:41:50.349Z,16.97
2018-07-25T03:44:21.096Z,18.17
2018-07-25T03:46:51.759Z,13.43
2018-07-25T03:49:22.711Z,16.50
2018-07-25T03:51:53.331Z,16.60
2018-07-25T03:54:24.053Z,12.60
2018-07-25T03:56:54.645Z,12.63
2018-07-25T03:59:25.582Z,13.97
2018-07-25T04:01:56.346Z,16.60
2018-07-25T04:04:27.080Z,14.33
2018-07-25T04:06:57.580Z,13.70
2018-07-25T04:09:28.504Z,12.23
2018-07-25T04:11:59.315Z,15.37
2018-07-25T04:14:30.117Z,15.80
2018-07-25T04:17:00.712Z,12.07
2018-07-25T04:19:31.428Z,11.80
2018-07-25T04:22:02.084Z,14.07
2018-07-25T04:24:32.402Z,16.43
2018-07-25T04:27:03.193Z,10.03
2018-07-25T04:29:34.065Z,11.13
2018-07-25T04:32:04.713Z,11.23
2018-07-25T04:34:35.533Z,7.80
2018-07-25T04:37:06.168Z,9.10
2018-07-25T04:39:37.040Z,8.40
2018-07-25T04:42:07.810Z,8.37
2018-07-25T04:44:38.608Z,8.50
2018-07-25T04:47:09.272Z,9.23
2018-07-25T04:49:40.184Z,9.73
2018-07-25T04:52:10.901Z,10.23
2018-07-25T04:54:41.817Z,10.17
2018-07-25T04:57:12.680Z,9.07
2018-07-25T04:59:43.978Z,9.40
2018-07-25T05:02:14.600Z,8.30
2018-07-25T05:04:45.304Z,8.63
2018-07-25T05:07:15.960Z,10.67
2018-07-25T05:09:46.850Z,8.60
2018-07-25T05:12:17.852Z,9.27
2018-07-25T05:14:48.052Z,9.87
2018-07-25T05:17:18.844Z,8.80
2018-07-25T05:19:49.798Z,8.93
2018-07-25T05:22:20.467Z,9.60
2018-07-25T05:24:51.292Z,9.30
2018-07-25T05:27:21.856Z,9.27
2018-07-25T05:29:52.376Z,8.60
2018-07-25T05:32:23.043Z,9.37
2018-07-25T05:34:54.312Z,9.90
2018-07-25T05:37:26.388Z,8.70
2018-07-25T05:39:57.517Z,10.20
2018-07-25T05:42:29.692Z,9.63
2018-07-25T05:45:00.547Z,10.53
2018-07-25T05:47:31.149Z,9.80
2018-07-25T05:50:01.829Z,10.67
2018-07-25T05:52:32.484Z,15.93
2018-07-25T05:55:03.637Z,10.60
2018-07-25T05:57:34.717Z,9.87
2018-07-25T06:00:05.885Z,9.30
2018-07-25T06:02:36.492Z,12.37
2018-07-25T06:05:07.380Z,11.53
2018-07-25T06:07:37.718Z,9.33
2018-07-25T06:10:08.663Z,9.20
2018-07-25T06:12:39.220Z,12.37
2018-07-25T06:15:09.962Z,11.70
2018-07-25T06:17:40.692Z,9.53
2018-07-25T06:20:11.985Z,8.90
2018-07-25T06:22:42.508Z,9.30
2018-07-25T06:25:13.317Z,20.10
2018-07-25T06:27:43.892Z,11.73
2018-07-25T06:30:14.548Z,10.67
2018-07-25T06:32:45.246Z,8.90
2018-07-25T06:35:16.145Z,8.87
2018-07-25T06:37:46.766Z,8.60
2018-07-25T06:40:16.847Z,8.20
2018-07-25T06:42:47.580Z,7.50
2018-07-25T06:45:18.405Z,8.03
2018-07-25T06:47:48.975Z,8.17
2018-07-25T06:50:20.640Z,7.00
2018-07-25T06:52:50.666Z,8.23
2018-07-25T06:55:21.504Z,8.97
2018-07-25T06:57:52.064Z,7.20
2018-07-25T07:00:22.609Z,7.17
2018-07-25T07:02:53.158Z,7.07
2018-07-25T07:05:23.828Z,9.50
2018-07-25T07:07:54.490Z,7.40
2018-07-25T07:10:25.230Z,6.17
2018-07-25T07:12:56.005Z,6.17
2018-07-25T07:15:26.830Z,7.10
2018-07-25T07:17:57.496Z,6.83
2018-07-25T07:20:27.985Z,5.63
2018-07-25T07:22:58.640Z,5.30
2018-07-25T07:25:29.597Z,5.60
2018-07-25T07:28:00.260Z,6.00
2018-07-25T07:30:31.069Z,4.67
2018-07-25T07:33:01.804Z,6.87
2018-07-25T07:35:32.412Z,4.20
2018-07-25T07:38:02.920Z,6.87
2018-07-25T07:40:33.817Z,6.33
2018-07-25T07:43:04.426Z,5.63
2018-07-25T07:45:35.192Z,6.47
2018-07-25T07:48:05.970Z,5.03
2018-07-25T07:50:36.662Z,4.20
2018-07-25T07:53:07.292Z,6.40
2018-07-25T07:55:37.845Z,3.83
2018-07-25T07:58:08.437Z,4.87
2018-07-25T08:00:39.079Z,3.83
2018-07-25T08:03:09.544Z,4.17
2018-07-25T08:05:40.655Z,5.13
2018-07-25T08:08:11.216Z,8.97
2018-07-25T08:10:42.134Z,4.60
2018-07-25T08:13:12.750Z,4.20
2018-07-25T08:15:43.685Z,4.60
2018-07-25T08:18:14.248Z,3.50
2018-07-25T08:20:45.176Z,3.87
2018-07-25T08:23:15.837Z,3.83
2018-07-25T08:25:46.692Z,3.10
2018-07-25T08:28:17.402Z,3.43
2018-07-25T08:30:48.041Z,3.47
2018-07-25T08:33:18.531Z,3.80
2018-07-25T08:35:49.168Z,2.77
2018-07-25T08:38:36.237Z,3.30
2018-07-25T08:41:07.379Z,3.23
2018-07-25T08:43:39.339Z,4.20
2018-07-25T08:46:11.337Z,6.40
2018-07-25T08:48:42.017Z,4.60
2018-07-25T08:51:12.696Z,3.60
2018-07-25T08:53:43.413Z,4.60
2018-07-25T08:56:14.051Z,5.30
2018-07-25T08:58:44.528Z,3.43
2018-07-25T09:01:15.507Z,4.07
2018-07-25T09:03:46.100Z,3.43
2018-07-25T09:06:16.909Z,2.60
2018-07-25T09:08:47.729Z,10.27
2018-07-25T09:11:50.944Z,1.85
2018-07-25T09:14:21.564Z,1.57
2018-07-25T09:16:52.932Z,6.00
2018-07-25T09:19:23.636Z,17.45
2018-07-25T09:21:54.329Z,6.37
2018-07-25T09:24:24.993Z,5.37
2018-07-25T09:26:55.834Z,5.22
2018-07-25T09:29:26.512Z,4.45
2018-07-25T09:31:57.196Z,3.52
2018-07-25T09:34:27.880Z,1.40
2018-07-25T09:36:58.348Z,1.43
2018-07-25T09:39:28.980Z,2.33
2018-07-25T09:42:00.061Z,6.20
2018-07-25T09:44:30.713Z,3.87
2018-07-25T09:47:01.457Z,1.30
2018-07-25T09:49:32.177Z,1.37
2018-07-25T09:52:02.980Z,1.50
2018-07-25T09:54:33.741Z,1.15
2018-07-25T09:57:04.525Z,1.40
2018-07-25T09:59:35.104Z,1.20
2018-07-25T10:02:05.909Z,0.95
2018-07-25T10:04:36.576Z,1.00
2018-07-25T10:07:07.499Z,1.00
2018-07-25T10:09:38.061Z,1.30
2018-07-25T10:12:09.443Z,1.92
2018-07-25T10:14:40.356Z,1.45
2018-07-25T10:17:11.273Z,1.90
2018-07-25T10:19:41.868Z,3.77
2018-07-25T10:22:12.579Z,2.20
2018-07-25T10:24:43.501Z,2.20
2018-07-25T10:27:14.420Z,2.62
2018-07-25T10:29:44.957Z,1.92
2018-07-25T10:32:15.540Z,2.00
2018-07-25T10:34:46.376Z,1.45
2018-07-25T10:37:17.386Z,2.85
2018-07-25T10:39:47.972Z,2.75
2018-07-25T10:42:18.764Z,2.00
2018-07-25T10:44:49.429Z,1.75
2018-07-25T10:47:20.185Z,2.00
2018-07-25T10:49:50.865Z,2.12
2018-07-25T10:52:21.940Z,1.72
2018-07-25T10:54:52.584Z,1.60
2018-07-25T10:57:23.369Z,1.67
2018-07-25T10:59:54.050Z,1.55
2018-07-25T11:02:24.897Z,1.70
2018-07-25T11:04:55.550Z,1.70
2018-07-25T11:07:26.365Z,1.70
2018-07-25T11:09:56.929Z,1.65
2018-07-25T11:12:27.780Z,2.00
2018-07-25T11:14:58.405Z,1.95
2018-07-25T11:17:29.265Z,2.02
2018-07-25T11:20:00.001Z,1.80
2018-07-25T11:22:30.811Z,1.62
2018-07-25T11:25:01.480Z,1.65
2018-07-25T11:27:32.162Z,2.05
2018-07-25T11:30:03.053Z,2.30
2018-07-25T11:32:33.910Z,5.15
2018-07-25T11:35:04.545Z,3.02
2018-07-25T11:37:36.157Z,1.72
2018-07-25T11:40:07.365Z,2.20
2018-07-25T11:42:38.297Z,1.77
2018-07-25T11:45:08.701Z,1.95
2018-07-25T11:47:39.456Z,2.80
2018-07-25T11:50:10.185Z,1.57
2018-07-25T11:52:40.909Z,1.77
2018-07-25T11:55:11.571Z,1.70
2018-07-25T11:57:42.376Z,1.72
2018-07-25T12:00:12.907Z,1.65
2018-07-25T12:02:43.705Z,1.82
2018-07-25T12:05:14.554Z,1.75
2018-07-25T12:07:45.429Z,2.92
2018-07-25T12:10:16.120Z,1.95
2018-07-25T12:12:46.952Z,1.87
2018-07-25T12:15:17.621Z,1.73
2018-07-25T12:17:48.256Z,2.10
2018-07-25T12:20:19.041Z,1.80
2018-07-25T12:22:49.839Z,3.40
2018-07-25T12:25:19.915Z,2.10
2018-07-25T12:27:50.478Z,1.80
2018-07-25T12:30:21.484Z,1.80
2018-07-25T12:32:52.106Z,2.00
2018-07-25T12:35:22.993Z,1.83
2018-07-25T12:37:53.729Z,1.47
2018-07-25T12:40:24.481Z,1.87
2018-07-25T12:42:55.277Z,1.83
2018-07-25T12:45:26.162Z,3.67
2018-07-25T12:47:57.608Z,9.13
2018-07-25T12:50:28.419Z,3.97
2018-07-25T12:52:58.678Z,3.15
2018-07-25T12:55:29.445Z,2.55
2018-07-25T12:58:00.116Z,2.50
2018-07-25T13:00:30.834Z,7.22
2018-07-25T13:03:01.482Z,2.15
2018-07-25T13:05:32.244Z,1.75
2018-07-25T13:08:03.055Z,1.60
2018-07-25T13:10:33.941Z,3.05
2018-07-25T13:13:04.766Z,4.12
2018-07-25T13:15:35.756Z,3.10
2018-07-25T13:18:06.183Z,2.27
2018-07-25T13:20:37.118Z,1.47
2018-07-25T13:23:07.759Z,1.67
2018-07-25T13:25:38.369Z,1.85
2018-07-25T13:28:09.060Z,1.62
2018-07-25T13:30:39.933Z,1.50
2018-07-25T13:33:10.792Z,1.67
2018-07-25T13:35:41.072Z,1.52
2018-07-25T13:38:11.673Z,1.60
2018-07-25T13:40:42.645Z,2.00
2018-07-25T13:43:14.120Z,1.60
2018-07-25T13:45:44.845Z,1.82
2018-07-25T13:48:14.997Z,2.00
2018-07-25T13:50:45.706Z,2.10
2018-07-25T13:53:16.286Z,1.85
2018-07-25T13:55:47.076Z,1.75
2018-07-25T13:58:17.802Z,1.87
2018-07-25T14:00:48.680Z,1.90
2018-07-25T14:03:19.323Z,1.82
2018-07-25T14:05:50.161Z,2.02
2018-07-25T14:08:20.469Z,2.05
2018-07-25T14:10:51.305Z,1.70
2018-07-25T14:13:21.589Z,1.72
2018-07-25T14:15:52.357Z,2.27
2018-07-25T14:18:22.682Z,1.60
2018-07-25T14:20:53.337Z,1.92
2018-07-25T14:23:23.960Z,1.70
2018-07-25T14:25:54.636Z,1.57
2018-07-25T14:28:25.325Z,1.42
2018-07-25T14:30:56.157Z,1.70
2018-07-25T14:33:26.716Z,2.83
2018-07-25T14:35:57.601Z,2.25
2018-07-25T14:38:28.280Z,1.98
2018-07-25T14:40:59.156Z,1.90
2018-07-25T14:43:29.934Z,2.17
2018-07-25T14:46:00.728Z,2.12
2018-07-25T14:48:31.482Z,2.22
2018-07-25T14:51:02.460Z,2.17
2018-07-25T14:53:33.135Z,1.73
2018-07-25T14:56:04.186Z,1.80
2018-07-25T14:58:34.836Z,1.90
2018-07-25T15:01:06.085Z,2.13
2018-07-25T15:03:36.772Z,2.47
2018-07-25T15:06:07.764Z,1.90
2018-07-25T15:08:38.310Z,2.13
2018-07-25T15:11:09.133Z,2.77
2018-07-25T15:13:39.806Z,1.93
2018-07-25T15:16:10.528Z,1.90
2018-07-25T15:18:41.238Z,1.67
2018-07-25T15:21:11.977Z,2.60
2018-07-25T15:23:55.769Z,12.30
2018-07-25T15:26:26.621Z,19.93
2018-07-25T15:28:57.589Z,13.27
2018-07-25T15:31:28.249Z,3.80
2018-07-25T15:33:58.992Z,2.20
2018-07-25T15:36:41.984Z,2.33
2018-07-25T15:39:15.149Z,2.10
2018-07-25T15:41:46.979Z,8.97
2018-07-25T15:44:18.518Z,6.13
2018-07-25T15:46:49.359Z,1.93
2018-07-25T15:49:19.918Z,2.83
2018-07-25T15:51:50.765Z,3.00
2018-07-25T15:54:21.429Z,2.53
2018-07-25T15:56:52.279Z,4.77
2018-07-25T15:59:22.980Z,2.03
2018-07-25T16:01:53.904Z,1.60
2018-07-25T16:04:24.576Z,1.70
2018-07-25T16:06:55.245Z,1.70
2018-07-25T16:09:25.609Z,1.57
2018-07-25T16:11:56.237Z,1.60
2018-07-25T16:14:26.817Z,1.40
2018-07-25T16:16:57.628Z,1.47
2018-07-25T16:19:28.190Z,1.80
2018-07-25T16:21:58.889Z,2.20
2018-07-25T16:24:29.607Z,1.63
2018-07-25T16:27:00.344Z,1.67
2018-07-25T16:29:31.010Z,1.60
2018-07-25T16:32:01.866Z,1.87
2018-07-25T16:34:32.566Z,1.70
2018-07-25T16:37:03.521Z,1.30
2018-07-25T16:39:34.172Z,1.30
2018-07-25T16:42:04.968Z,2.42
2018-07-25T16:44:35.657Z,1.27
2018-07-25T16:47:06.576Z,2.60
2018-07-25T16:49:37.274Z,1.20
2018-07-25T16:52:08.301Z,1.00
2018-07-25T16:54:38.980Z,1.90
2018-07-25T16:57:09.966Z,1.57
2018-07-25T16:59:40.666Z,1.73
2018-07-25T17:02:11.896Z,1.33
2018-07-25T17:04:42.482Z,1.43
2018-07-25T17:07:13.341Z,1.13
2018-07-25T17:09:43.933Z,1.07
2018-07-25T17:12:14.665Z,0.97
2018-07-25T17:14:45.323Z,1.20
2018-07-25T17:17:16.228Z,1.87
2018-07-25T17:19:46.833Z,1.50
2018-07-25T17:22:17.542Z,2.47
2018-07-25T17:24:48.281Z,1.20
2018-07-25T17:27:19.136Z,1.77
2018-07-25T17:29:49.773Z,3.53
2018-07-25T17:32:20.412Z,4.83
2018-07-25T17:34:51.130Z,4.97
2018-07-25T17:37:22.224Z,4.47
2018-07-25T17:39:52.848Z,3.37
2018-07-25T17:42:23.488Z,3.00
2018-07-25T17:44:54.269Z,2.37
2018-07-25T17:47:25.200Z,2.20
2018-07-25T17:49:55.866Z,1.17
2018-07-25T17:52:26.580Z,1.63
2018-07-25T17:54:57.261Z,1.60
2018-07-25T17:57:27.801Z,1.40
2018-07-25T17:59:58.468Z,7.47
2018-07-25T18:02:29.206Z,2.17
2018-07-25T18:04:59.840Z,2.33
2018-07-25T18:07:30.919Z,2.10
2018-07-25T18:10:01.550Z,1.70
2018-07-25T18:12:32.593Z,2.40
2018-07-25T18:15:03.017Z,2.13
2018-07-25T18:17:33.905Z,2.57
2018-07-25T18:20:04.795Z,3.90
2018-07-25T18:22:35.787Z,2.90
2018-07-25T18:25:06.883Z,3.67
2018-07-25T18:27:37.745Z,4.77
2018-07-25T18:30:08.052Z,4.83
2018-07-25T18:32:38.689Z,3.73
2018-07-25T18:35:09.272Z,3.37
2018-07-25T18:37:40.057Z,3.97
2018-07-25T18:40:10.737Z,3.40
2018-07-25T18:42:41.573Z,2.37
2018-07-25T18:45:12.285Z,7.37
2018-07-25T18:47:43.034Z,36.40
2018-07-25T18:50:13.305Z,54.30
2018-07-25T18:52:44.097Z,44.97
2018-07-25T18:55:14.434Z,35.23
2018-07-25T18:57:44.973Z,11.33
2018-07-25T19:00:15.697Z,7.83
2018-07-25T19:02:46.645Z,5.57
2018-07-25T19:05:17.463Z,4.33
2018-07-25T19:07:48.574Z,4.07
2018-07-25T19:10:19.330Z,1.83
2018-07-25T19:12:50.132Z,3.33
2018-07-25T19:15:25.665Z,3.57
2018-07-25T19:17:56.558Z,1.63
2018-07-25T19:20:27.229Z,1.63
2018-07-25T19:22:57.785Z,2.07
2018-07-25T19:25:28.443Z,2.10
2018-07-25T19:27:59.438Z,1.83
2018-07-25T19:30:30.101Z,1.87
2018-07-25T19:33:00.466Z,2.27
2018-07-25T19:35:31.179Z,1.77
2018-07-25T19:38:02.221Z,4.90
2018-07-25T19:40:32.984Z,2.60
2018-07-25T19:43:03.913Z,1.63
2018-07-25T19:45:34.324Z,1.47
2018-07-25T19:48:04.969Z,3.30
2018-07-25T19:50:35.467Z,3.07
2018-07-25T19:53:06.140Z,2.77
2018-07-25T19:55:36.899Z,4.67
2018-07-25T19:58:08.022Z,3.80
2018-07-25T20:00:38.717Z,3.57
2018-07-25T20:03:09.386Z,3.30
2018-07-25T20:05:39.984Z,4.43
2018-07-25T20:08:10.649Z,2.40
2018-07-25T20:10:41.337Z,3.27
2018-07-25T20:13:12.160Z,2.93
2018-07-25T20:15:49.637Z,3.17
2018-07-25T20:18:20.394Z,2.53
2018-07-25T20:20:51.020Z,3.07
2018-07-25T20:23:22.101Z,2.47
2018-07-25T20:25:52.852Z,2.50
2018-07-25T20:28:23.493Z,3.77
2018-07-25T20:30:54.263Z,1.90
2018-07-25T20:33:25.030Z,2.97
2018-07-25T20:35:55.791Z,2.80
2018-07-25T20:38:26.381Z,3.07
2018-07-25T20:40:57.154Z,3.00
2018-07-25T20:43:27.845Z,3.83
2018-07-25T20:45:58.534Z,2.83
2018-07-25T20:48:29.568Z,5.17
2018-07-25T20:51:00.236Z,4.20
2018-07-25T20:53:31.336Z,3.07
2018-07-25T20:56:01.943Z,2.37
2018-07-25T20:58:32.217Z,2.63
2018-07-25T21:01:02.728Z,1.57
2018-07-25T21:03:33.253Z,1.87
2018-07-25T21:06:03.781Z,1.67
2018-07-25T21:08:34.801Z,1.50
2018-07-25T21:11:05.476Z,1.67
2018-07-25T21:13:36.357Z,1.60
2018-07-25T21:16:07.041Z,2.43
2018-07-25T21:18:37.836Z,3.23
2018-07-25T21:21:08.926Z,1.93
2018-07-25T21:23:39.723Z,2.90
2018-07-25T21:26:10.221Z,4.20
2018-07-25T21:28:41.257Z,2.43
2018-07-25T21:31:11.963Z,2.20
2018-07-25T21:33:42.673Z,3.97
2018-07-25T21:36:13.336Z,3.17
2018-07-25T21:38:44.197Z,3.77
2018-07-25T21:41:14.636Z,2.63
2018-07-25T21:43:45.469Z,2.90
2018-07-25T21:46:16.176Z,3.30
2018-07-25T21:48:47.206Z,3.50
2018-07-25T21:51:17.777Z,4.20
2018-07-25T21:53:48.535Z,5.77
2018-07-25T21:56:19.128Z,2.93
2018-07-25T21:58:49.888Z,3.00
2018-07-25T22:01:20.718Z,3.87
2018-07-25T22:03:51.420Z,4.60
2018-07-25T22:06:22.353Z,5.50
2018-07-25T22:08:53.669Z,3.57
2018-07-25T22:11:24.421Z,3.23
2018-07-25T22:13:57.827Z,3.63
2018-07-25T22:16:28.697Z,3.07
2018-07-25T22:18:59.286Z,3.97
2018-07-25T22:21:30.154Z,4.87
2018-07-25T22:24:00.688Z,2.67
2018-07-25T22:26:31.314Z,3.17
2018-07-25T22:29:01.933Z,2.77
2018-07-25T22:31:32.698Z,4.17
2018-07-25T22:34:03.160Z,3.57
2018-07-25T22:36:34.030Z,4.53
2018-07-25T22:39:06.849Z,3.50
2018-07-25T22:41:37.428Z,3.20
2018-07-25T22:44:07.916Z,5.63
2018-07-25T22:46:38.700Z,4.73
2018-07-25T22:49:09.282Z,3.63
2018-07-25T22:51:40.005Z,2.97
2018-07-25T22:54:10.608Z,2.97
2018-07-25T22:56:41.225Z,3.50
2018-07-25T22:59:13.743Z,3.00
2018-07-25T23:01:44.500Z,2.43
2018-07-25T23:04:15.142Z,3.17
2018-07-25T23:06:45.916Z,2.77
2018-07-25T23:09:16.769Z,3.13
2018-07-25T23:11:47.585Z,2.67
2018-07-25T23:14:18.112Z,3.33
2018-07-25T23:16:49.028Z,2.60
2018-07-25T23:19:19.736Z,5.23
2018-07-25T23:21:50.523Z,2.17
2018-07-25T23:24:21.312Z,2.43
2018-07-25T23:26:52.205Z,4.33
2018-07-25T23:29:22.513Z,2.60
2018-07-25T23:31:53.307Z,2.87
2018-07-25T23:34:24.049Z,3.00
2018-07-25T23:36:54.760Z,2.30
2018-07-25T23:39:25.588Z,5.23
2018-07-25T23:41:56.324Z,2.83
2018-07-25T23:44:27.009Z,3.03
2018-07-25T23:46:57.918Z,4.83
2018-07-25T23:49:28.583Z,2.73
2018-07-25T23:51:59.317Z,3.20
2018-07-25T23:54:29.970Z,2.77
2018-07-25T23:57:00.589Z,3.57
2018-07-25T23:59:31.434Z,2.53
